Time;durP1;ratioP1;P1;durP2;ratioP2;P2;SDS_P1;SDS_P2;PMS_P1;PMS_P2;Temp;Humidity;BMP_temperature;BMP_pressure;BME280_temperature;BME280_humidity;BME280_pressure;Samples;Min_cycle;Max_cycle;Signal;HPM_P1;HPM_P2
2022/01/29 00:00:34;;;;;;;42.05;18.60;;;;;;;4.93;83.85;102870.81;5059215;28;20040;-80
2022/01/29 00:03:00;;;;;;;46.45;20.17;;;;;;;4.91;83.96;102869.88;5055912;28;20315;-80
2022/01/29 00:05:25;;;;;;;45.45;19.25;;;;;;;4.90;83.66;102852.66;5057384;28;20052;-80
2022/01/29 00:07:50;;;;;;;45.08;19.48;;;;;;;4.92;83.71;102844.16;5051809;28;20044;-80
2022/01/29 00:10:16;;;;;;;45.17;18.88;;;;;;;4.95;83.64;102851.97;5057093;28;20039;-80
2022/01/29 00:12:42;;;;;;;46.95;20.13;;;;;;;4.98;83.83;102846.03;5058903;28;20036;-80
2022/01/29 00:15:07;;;;;;;41.50;19.23;;;;;;;4.95;84.14;102836.47;5057193;28;20033;-80
2022/01/29 00:17:33;;;;;;;47.13;19.10;;;;;;;4.98;83.76;102844.31;5057669;28;20112;-81
2022/01/29 00:19:59;;;;;;;44.97;19.37;;;;;;;4.97;83.88;102839.13;5050553;28;20472;-80
2022/01/29 00:22:25;;;;;;;51.40;20.07;;;;;;;5.00;84.04;102826.31;5046342;28;20488;-80
2022/01/29 00:24:50;;;;;;;45.67;19.97;;;;;;;4.98;84.08;102831.41;5047202;28;20523;-80
2022/01/29 00:27:18;;;;;;;48.27;20.20;;;;;;;5.03;83.73;102835.84;5050276;28;20028;-80
2022/01/29 00:29:43;;;;;;;46.88;19.60;;;;;;;5.05;84.04;102836.78;5048890;28;20052;-80
2022/01/29 00:32:10;;;;;;;47.25;20.08;;;;;;;5.05;84.27;102829.03;5050679;28;20064;-80
2022/01/29 00:34:37;;;;;;;48.15;19.00;;;;;;;5.06;84.03;102823.91;5048697;28;20021;-80
2022/01/29 00:37:03;;;;;;;45.58;19.92;;;;;;;5.03;84.02;102820.38;5049426;28;20396;-80
2022/01/29 00:39:28;;;;;;;44.58;20.40;;;;;;;5.05;84.10;102821.28;5051203;28;20035;-80
2022/01/29 00:41:54;;;;;;;46.20;19.88;;;;;;;5.06;84.49;102813.59;5051222;28;20100;-80
2022/01/29 00:44:19;;;;;;;44.90;20.23;;;;;;;5.08;84.35;102826.53;5049721;28;20033;-80
2022/01/29 00:46:44;;;;;;;47.20;19.98;;;;;;;5.09;84.20;102817.97;5050714;28;20029;-80
2022/01/29 00:49:11;;;;;;;41.00;19.40;;;;;;;5.09;84.42;102805.06;5050077;28;20033;-80
2022/01/29 00:51:37;;;;;;;43.35;18.95;;;;;;;5.07;84.10;102794.69;5050096;28;20029;-80
2022/01/29 00:54:02;;;;;;;48.70;19.50;;;;;;;5.09;83.97;102792.19;5049587;28;20108;-80
2022/01/29 00:56:28;;;;;;;41.00;19.33;;;;;;;5.10;84.04;102801.66;5050539;28;20060;-80
2022/01/29 00:58:53;;;;;;;46.20;20.80;;;;;;;5.08;84.62;102793.00;5050233;28;20502;-80
2022/01/29 01:01:18;;;;;;;44.70;19.48;;;;;;;5.11;84.48;102783.66;5049328;28;20043;-80
2022/01/29 01:03:44;;;;;;;49.40;20.58;;;;;;;5.12;84.42;102777.66;5048182;28;20029;-80
2022/01/29 01:06:09;;;;;;;44.60;19.70;;;;;;;5.12;84.89;102762.16;5048423;28;20029;-81
2022/01/29 01:08:34;;;;;;;44.40;20.02;;;;;;;5.12;84.44;102761.31;5054737;28;20039;-80
2022/01/29 01:11:00;;;;;;;46.67;19.70;;;;;;;5.12;84.72;102749.28;5048857;28;20103;-81
2022/01/29 01:13:25;;;;;;;44.55;20.25;;;;;;;5.12;84.82;102756.16;5049303;28;20037;-79
2022/01/29 01:15:50;;;;;;;49.80;20.38;;;;;;;5.11;85.19;102755.25;5054445;28;20105;-80
2022/01/29 01:18:16;;;;;;;46.80;19.73;;;;;;;5.11;84.84;102736.34;5054748;28;20031;-80
2022/01/29 01:20:41;;;;;;;47.17;19.80;;;;;;;5.08;85.02;102736.25;5059255;28;20060;-80
2022/01/29 01:23:06;;;;;;;43.95;19.85;;;;;;;5.10;84.84;102726.84;5052007;28;21585;-80
2022/01/29 01:25:31;;;;;;;47.00;20.27;;;;;;;5.10;84.63;102722.56;5053998;28;20056;-80
2022/01/29 01:27:57;;;;;;;46.15;20.25;;;;;;;5.10;84.63;102722.56;5052845;28;20044;-80
2022/01/29 01:30:23;;;;;;;45.25;20.27;;;;;;;5.12;85.05;102714.88;5053677;28;20112;-80
2022/01/29 01:32:48;;;;;;;43.50;19.63;;;;;;;5.11;85.52;102713.13;5053461;28;20033;-80
2022/01/29 01:35:20;;;;;;;40.57;19.73;;;;;;;5.12;85.54;102713.16;5052893;28;20024;-80
2022/01/29 01:37:52;;;;;;;42.37;19.93;;;;;;;5.11;85.40;102707.97;5053287;28;20465;-80
2022/01/29 01:40:18;;;;;;;49.22;21.73;;;;;;;5.12;85.37;102704.56;5053391;28;20025;-80
2022/01/29 01:42:44;;;;;;;44.20;19.00;;;;;;;5.13;85.92;102701.09;5052980;28;20120;-80
2022/01/29 01:45:09;;;;;;;42.47;20.30;;;;;;;5.10;85.86;102701.06;5053237;28;20105;-80
2022/01/29 01:47:35;;;;;;;48.80;21.93;;;;;;;5.12;85.70;102709.72;5052684;28;20036;-80
2022/01/29 01:50:00;;;;;;;43.80;19.83;;;;;;;5.14;85.98;102708.03;5052956;28;20561;-80
2022/01/29 01:52:25;;;;;;;47.47;20.83;;;;;;;5.15;86.07;102689.13;5053288;28;20028;-80
2022/01/29 01:54:51;;;;;;;43.70;20.17;;;;;;;5.13;86.03;102691.69;5053008;28;20052;-80
2022/01/29 01:57:17;;;;;;;38.65;18.48;;;;;;;5.15;86.09;102683.97;5053390;28;20368;-80
2022/01/29 01:59:43;;;;;;;40.35;17.90;;;;;;;5.16;85.87;102688.31;5051689;28;20124;-80
2022/01/29 02:02:08;;;;;;;44.83;19.85;;;;;;;5.14;86.02;102687.38;5052083;28;20031;-80
2022/01/29 02:04:34;;;;;;;40.00;19.17;;;;;;;5.14;86.01;102682.22;5052019;28;20108;-80
2022/01/29 02:07:01;;;;;;;42.08;20.00;;;;;;;5.13;86.27;102676.19;5053243;28;20035;-80
2022/01/29 02:09:27;;;;;;;41.17;18.67;;;;;;;5.12;86.60;102679.63;5052251;28;20017;-80
2022/01/29 02:11:56;;;;;;;41.30;19.98;;;;;;;5.11;86.74;102674.44;5052595;28;20090;-80
2022/01/29 02:14:30;;;;;;;43.08;19.63;;;;;;;5.13;86.47;102675.31;5052226;28;20071;-80
2022/01/29 02:16:55;;;;;;;41.97;19.05;;;;;;;5.09;86.73;102661.47;5052487;28;20070;-80
2022/01/29 02:19:21;;;;;;;35.60;18.02;;;;;;;5.07;86.87;102654.53;5051749;28;20021;-80
2022/01/29 02:21:46;;;;;;;34.30;17.83;;;;;;;5.06;86.98;102657.94;5052516;28;20045;-80
2022/01/29 02:24:12;;;;;;;37.08;18.15;;;;;;;5.06;87.14;102655.38;5050935;28;20033;-80
2022/01/29 02:26:38;;;;;;;39.75;18.25;;;;;;;5.05;87.27;102656.19;5052897;28;20056;-80
2022/01/29 02:29:04;;;;;;;37.42;18.05;;;;;;;5.03;87.52;102657.84;5051877;28;20102;-80
2022/01/29 02:31:29;;;;;;;32.65;16.70;;;;;;;5.05;87.36;102656.19;5053116;28;20032;-80
2022/01/29 02:33:55;;;;;;;37.95;18.23;;;;;;;5.04;87.68;102649.28;5052107;28;20029;-80
2022/01/29 02:36:20;;;;;;;34.33;17.15;;;;;;;5.01;87.52;102650.94;5051167;28;20032;-80
2022/01/29 02:38:45;;;;;;;37.72;15.85;;;;;;;5.04;87.61;102650.13;5052445;28;20159;-80
2022/01/29 02:41:10;;;;;;;34.40;16.23;;;;;;;5.03;88.10;102632.94;5052206;28;20041;-80
2022/01/29 02:48:58;;;;;;;33.22;17.10;;;;;;;5.04;88.52;102633.81;5035445;28;20044;-80
2022/01/29 02:51:23;;;;;;;36.20;16.52;;;;;;;5.05;88.26;102626.09;5051212;28;20025;-80
2022/01/29 02:53:49;;;;;;;33.40;16.50;;;;;;;5.02;88.18;102631.19;5052160;28;20338;-80
2022/01/29 02:56:14;;;;;;;33.55;16.30;;;;;;;5.04;88.10;102633.81;5051783;28;20045;-80
2022/01/29 02:58:40;;;;;;;36.85;17.58;;;;;;;5.03;88.56;102622.63;5052712;28;20380;-80
2022/01/29 03:01:07;;;;;;;32.65;16.00;;;;;;;5.02;88.65;102620.88;5050951;28;20028;-80
2022/01/29 03:03:32;;;;;;;33.35;16.75;;;;;;;5.00;88.94;102618.25;5051142;28;20368;-80
2022/01/29 03:05:57;;;;;;;31.13;16.17;;;;;;;5.01;88.57;102619.13;5051585;28;20029;-80
2022/01/29 03:08:23;;;;;;;32.95;15.20;;;;;;;5.05;88.89;102612.34;5052020;28;20036;-80
2022/01/29 03:10:48;;;;;;;36.55;16.20;;;;;;;5.06;89.00;102614.09;5051435;28;20404;-80
2022/01/29 03:13:14;;;;;;;32.42;16.85;;;;;;;5.07;89.08;102597.78;5050555;28;20039;-80
2022/01/29 03:15:40;;;;;;;31.65;15.52;;;;;;;5.06;89.34;102599.47;5052128;28;20025;-80
2022/01/29 03:18:05;;;;;;;32.53;15.40;;;;;;;5.09;89.27;102602.13;5051879;28;20106;-80
2022/01/29 03:20:30;;;;;;;36.35;15.18;;;;;;;5.08;89.20;102578.88;5051456;28;20060;-80
2022/01/29 03:22:56;;;;;;;35.80;15.40;;;;;;;5.11;88.93;102582.41;5051825;28;20049;-80
2022/01/29 03:25:21;;;;;;;30.10;15.63;;;;;;;5.12;89.45;102583.28;5051265;28;20123;-81
2022/01/29 03:27:46;;;;;;;29.23;14.85;;;;;;;5.11;89.19;102584.13;5051321;28;20031;-80
2022/01/29 03:30:12;;;;;;;31.15;14.90;;;;;;;5.13;89.26;102585.00;5051017;28;20410;-80
2022/01/29 03:32:37;;;;;;;32.03;15.40;;;;;;;5.14;89.55;102592.81;5051691;28;20035;-81
2022/01/29 03:35:03;;;;;;;29.75;15.10;;;;;;;5.19;89.42;102572.28;5049775;28;20025;-80
2022/01/29 03:37:29;;;;;;;32.20;14.95;;;;;;;5.18;89.84;102569.66;5051125;28;20037;-80
2022/01/29 03:39:59;;;;;;;29.38;14.93;;;;;;;5.21;89.11;102570.59;5049738;28;20025;-81
2022/01/29 03:42:25;;;;;;;34.00;16.17;;;;;;;5.20;89.33;102562.84;5051889;28;20476;-80
2022/01/29 03:44:51;;;;;;;31.73;14.73;;;;;;;5.22;89.55;102571.47;5051363;28;20411;-80
2022/01/29 03:47:16;;;;;;;36.33;16.13;;;;;;;5.22;89.81;102567.19;5050111;28;20534;-80
2022/01/29 03:49:41;;;;;;;33.10;15.40;;;;;;;5.21;89.38;102568.03;5051417;28;20488;-80
2022/01/29 03:52:06;;;;;;;33.83;15.43;;;;;;;5.21;89.85;102565.44;5050808;28;20542;-80
2022/01/29 03:54:32;;;;;;;44.88;17.92;;;;;;;5.23;89.83;102553.47;5050253;28;20044;-80
2022/01/29 03:56:57;;;;;;;32.70;15.85;;;;;;;5.23;89.85;102560.31;5050148;28;20033;-80
2022/01/29 03:59:22;;;;;;;36.65;15.65;;;;;;;5.21;89.39;102557.72;5051292;28;20056;-80
2022/01/29 04:01:48;;;;;;;35.63;16.48;;;;;;;5.23;89.99;102558.63;5047853;28;20037;-80
2022/01/29 04:04:13;;;;;;;40.33;17.20;;;;;;;5.24;89.77;102552.63;5049946;28;20074;-80
2022/01/29 04:06:38;;;;;;;33.28;16.02;;;;;;;5.26;89.63;102561.28;5051345;28;20029;-80
2022/01/29 04:09:06;;;;;;;34.38;16.77;;;;;;;5.23;89.92;102558.63;5051787;28;20460;-80
2022/01/29 04:11:34;;;;;;;40.83;16.92;;;;;;;5.29;90.03;102565.63;5048508;28;20047;-80
2022/01/29 04:13:59;;;;;;;40.47;16.08;;;;;;;5.28;89.52;102561.31;5049617;28;20482;-80
2022/01/29 04:16:25;;;;;;;38.08;15.93;;;;;;;5.29;89.55;102558.78;5050463;28;20101;-80
2022/01/29 04:18:50;;;;;;;39.08;17.05;;;;;;;5.29;89.81;102556.19;5051188;28;20036;-80
2022/01/29 04:21:15;;;;;;;38.40;16.45;;;;;;;5.29;89.90;102551.03;5050560;28;20412;-80
2022/01/29 04:23:40;;;;;;;35.58;15.80;;;;;;;5.29;90.00;102545.88;5050484;28;20415;-80
2022/01/29 04:26:06;;;;;;;44.92;16.67;;;;;;;5.28;90.05;102544.13;5050118;28;20476;-80
2022/01/29 04:28:37;;;;;;;36.08;15.80;;;;;;;5.29;89.86;102532.97;5048878;28;20025;-80
2022/01/29 04:31:17;;;;;;;33.92;15.88;;;;;;;5.34;90.12;102539.94;5050656;28;20071;-81
2022/01/29 04:33:42;;;;;;;32.83;14.70;;;;;;;5.34;90.05;102545.09;5049492;28;20024;-81
2022/01/29 04:36:08;;;;;;;34.58;14.95;;;;;;;5.36;89.80;102538.25;5050608;28;20021;-80
2022/01/29 04:38:34;;;;;;;31.13;14.27;;;;;;;5.35;90.14;102539.09;5050815;28;20029;-80
2022/01/29 04:41:03;;;;;;;33.00;15.23;;;;;;;5.35;90.28;102544.25;5050718;28;20464;-80
2022/01/29 04:43:29;;;;;;;33.35;15.93;;;;;;;5.38;90.46;102534.00;5049707;28;20020;-80
2022/01/29 04:45:54;;;;;;;44.40;14.73;;;;;;;5.38;90.54;102534.00;5050309;28;20029;-80
2022/01/29 04:48:19;;;;;;;33.25;15.00;;;;;;;5.40;90.14;102530.63;5056644;28;20017;-80
2022/01/29 04:50:45;;;;;;;28.50;14.45;;;;;;;5.42;90.23;102521.19;5053299;28;20579;-80
2022/01/29 04:53:10;;;;;;;32.65;15.27;;;;;;;5.44;90.37;102510.94;5052808;28;20037;-80
2022/01/29 04:55:36;;;;;;;30.73;14.82;;;;;;;5.45;90.14;102513.53;5054526;28;20029;-80
2022/01/29 04:58:02;;;;;;;32.75;14.73;;;;;;;5.47;90.56;102517.03;5054699;28;20025;-80
2022/01/29 05:00:28;;;;;;;30.98;14.55;;;;;;;5.50;90.39;102508.47;5053561;28;20479;-80
2022/01/29 05:02:55;;;;;;;30.63;12.93;;;;;;;5.50;90.26;102500.72;5053754;28;20029;-80
2022/01/29 05:05:22;;;;;;;36.50;15.68;;;;;;;5.50;90.63;102492.97;5055030;28;20060;-80
2022/01/29 05:07:47;;;;;;;31.15;14.80;;;;;;;5.52;90.52;102496.47;5053854;28;20021;-80
2022/01/29 05:10:14;;;;;;;35.78;16.60;;;;;;;5.56;90.84;102493.13;5054184;28;20475;-80
2022/01/29 05:12:54;;;;;;;33.38;15.73;;;;;;;5.56;90.66;102493.13;5052352;28;20559;-80
2022/01/29 05:28:42;;;;;;;34.88;16.17;;;;;;;5.61;90.94;102483.78;5056819;28;20071;-80
2022/01/29 05:31:07;;;;;;;40.70;16.63;;;;;;;5.65;90.87;102486.41;5067255;28;20021;-80
2022/01/29 05:33:33;;;;;;;37.67;17.60;;;;;;;5.67;90.89;102488.19;5051953;28;20029;-80
2022/01/29 05:35:58;;;;;;;36.80;17.23;;;;;;;5.67;90.91;102487.31;5052212;28;20480;-80
2022/01/29 05:38:26;;;;;;;33.58;16.08;;;;;;;5.69;91.02;102475.31;5053977;28;20028;-80
2022/01/29 05:40:51;;;;;;;41.88;16.45;;;;;;;5.70;90.99;102474.47;5054141;28;20021;-80
2022/01/29 05:43:16;;;;;;;39.25;16.50;;;;;;;5.70;91.23;102474.47;5053602;28;20047;-79
2022/01/29 05:45:41;;;;;;;38.50;16.95;;;;;;;5.74;91.08;102478.88;5054207;28;20036;-80
2022/01/29 05:48:07;;;;;;;36.83;16.38;;;;;;;5.74;91.35;102471.13;5053737;28;20016;-80
2022/01/29 05:50:32;;;;;;;41.85;16.38;;;;;;;5.74;91.52;102474.56;5054075;28;20437;-80
2022/01/29 05:52:57;;;;;;;37.80;17.20;;;;;;;5.75;91.13;102476.31;5052275;28;20029;-80
2022/01/29 05:55:22;;;;;;;37.00;17.08;;;;;;;5.76;91.24;102472.03;5054163;28;20017;-80
2022/01/29 05:57:48;;;;;;;39.45;17.15;;;;;;;5.80;91.56;102468.69;5053976;28;20127;-80
2022/01/29 06:00:14;;;;;;;37.95;19.02;;;;;;;5.81;91.48;102462.63;5053519;28;20079;-80
2022/01/29 06:02:39;;;;;;;40.38;17.23;;;;;;;5.82;91.57;102464.38;5051129;28;20107;-80
2022/01/29 06:05:05;;;;;;;37.53;17.90;;;;;;;5.82;91.25;102459.22;5052883;28;20468;-80
2022/01/29 06:07:30;;;;;;;42.45;17.50;;;;;;;5.85;91.43;102448.09;5054019;28;20059;-80
2022/01/29 06:09:56;;;;;;;45.42;17.92;;;;;;;5.86;91.45;102448.13;5053623;28;20681;-80
2022/01/29 06:12:21;;;;;;;42.08;18.30;;;;;;;5.87;91.41;102455.03;5053603;28;20077;-80
2022/01/29 06:14:46;;;;;;;43.40;19.40;;;;;;;5.87;91.46;102452.44;5052203;28;20025;-80
2022/01/29 06:17:12;;;;;;;36.25;17.92;;;;;;;5.87;91.55;102455.03;5053604;28;20441;-80
2022/01/29 06:19:37;;;;;;;39.72;17.33;;;;;;;5.88;91.84;102451.59;5053085;28;20083;-80
2022/01/29 06:22:08;;;;;;;42.80;18.45;;;;;;;5.89;91.29;102453.34;5053563;28;20048;-80
2022/01/29 06:24:33;;;;;;;39.40;19.02;;;;;;;5.90;91.49;102444.75;5050834;28;20533;-80
2022/01/29 06:26:58;;;;;;;38.72;18.02;;;;;;;5.93;91.46;102450.00;5052074;28;20037;-80
2022/01/29 06:29:24;;;;;;;38.83;18.65;;;;;;;5.96;91.71;102445.72;5052668;28;20028;-80
2022/01/29 06:31:49;;;;;;;39.78;18.50;;;;;;;5.96;91.66;102445.72;5053625;28;20025;-80
2022/01/29 06:34:14;;;;;;;39.67;19.10;;;;;;;5.98;91.54;102439.75;5051896;28;20021;-80
2022/01/29 06:36:40;;;;;;;37.92;18.13;;;;;;;6.01;91.73;102436.38;5052880;28;20029;-80
2022/01/29 06:39:05;;;;;;;48.13;19.73;;;;;;;6.02;91.58;102438.09;5052565;28;20032;-80
2022/01/29 06:41:30;;;;;;;43.38;19.00;;;;;;;6.05;91.65;102425.25;5053066;28;20025;-80
2022/01/29 06:43:55;;;;;;;39.65;18.70;;;;;;;6.04;91.66;102436.44;5051966;28;20083;-80
2022/01/29 06:46:21;;;;;;;35.90;17.42;;;;;;;6.06;91.87;102434.75;5052811;28;20491;-80
2022/01/29 06:48:46;;;;;;;42.65;19.13;;;;;;;6.07;91.54;102426.16;5052634;28;20104;-80
2022/01/29 06:51:11;;;;;;;42.67;18.65;;;;;;;6.05;91.74;102413.22;5052021;28;20025;-80
2022/01/29 06:53:36;;;;;;;42.17;18.23;;;;;;;6.08;91.47;102417.56;5052140;28;20096;-80
2022/01/29 06:56:02;;;;;;;37.25;17.73;;;;;;;6.08;91.47;102412.41;5052734;28;20025;-80
2022/01/29 06:58:27;;;;;;;40.00;19.30;;;;;;;6.11;91.85;102412.47;5052569;28;20032;-80
2022/01/29 07:00:52;;;;;;;36.85;18.80;;;;;;;6.11;91.65;102406.41;5052276;28;20160;-80
2022/01/29 07:03:17;;;;;;;39.13;19.83;;;;;;;6.12;91.46;102409.03;5050043;28;20036;-80
2022/01/29 07:05:43;;;;;;;35.88;18.15;;;;;;;6.14;91.74;102399.59;5050991;28;20025;-80
2022/01/29 07:08:08;;;;;;;35.28;17.65;;;;;;;6.15;91.73;102398.72;5052629;28;20036;-81
2022/01/29 07:10:34;;;;;;;39.78;19.25;;;;;;;6.16;91.77;102400.47;5051674;28;20057;-80
2022/01/29 07:12:59;;;;;;;40.78;20.15;;;;;;;6.17;91.58;102398.78;5049970;28;20044;-80
2022/01/29 07:15:24;;;;;;;40.85;19.90;;;;;;;6.17;91.78;102402.22;5050694;28;20025;-80
2022/01/29 07:17:50;;;;;;;38.88;18.35;;;;;;;6.20;91.68;102401.41;5050548;28;20028;-80
2022/01/29 07:20:15;;;;;;;36.33;18.08;;;;;;;6.19;91.63;102385.03;5051974;28;20050;-80
2022/01/29 07:22:40;;;;;;;34.80;18.35;;;;;;;6.22;91.91;102385.09;5051964;28;20053;-80
2022/01/29 07:25:07;;;;;;;35.97;18.33;;;;;;;6.23;91.64;102391.16;5050776;28;20025;-80
2022/01/29 07:27:32;;;;;;;40.65;19.42;;;;;;;6.23;92.06;102398.91;5052155;28;20040;-80
2022/01/29 07:29:57;;;;;;;40.97;18.77;;;;;;;6.25;91.94;102399.75;5052114;28;20029;-80
2022/01/29 07:32:22;;;;;;;37.67;19.05;;;;;;;6.27;91.99;102397.22;5051158;28;20047;-80
2022/01/29 07:34:48;;;;;;;39.88;17.80;;;;;;;6.28;92.00;102404.13;5051372;28;20029;-80
2022/01/29 07:37:13;;;;;;;37.33;18.00;;;;;;;6.29;92.04;102395.53;5048877;28;20031;-80
2022/01/29 07:39:38;;;;;;;38.65;19.35;;;;;;;6.32;92.06;102395.59;5051466;28;20056;-80
2022/01/29 07:42:04;;;;;;;36.63;18.83;;;;;;;6.34;91.90;102396.47;5051738;28;20451;-80
2022/01/29 07:44:30;;;;;;;40.67;19.23;;;;;;;6.34;92.11;102394.78;5049194;28;20258;-80
2022/01/29 07:46:55;;;;;;;38.03;18.45;;;;;;;6.35;92.00;102385.28;5051377;28;20071;-81
2022/01/29 07:49:21;;;;;;;33.53;18.17;;;;;;;6.37;92.44;102384.50;5051876;28;20468;-80
2022/01/29 07:51:46;;;;;;;36.63;18.15;;;;;;;6.39;92.21;102389.66;5051549;28;20024;-80
2022/01/29 07:54:11;;;;;;;35.88;17.83;;;;;;;6.40;92.40;102388.81;5049697;28;20033;-80
2022/01/29 07:56:36;;;;;;;34.20;18.20;;;;;;;6.42;92.56;102381.97;5048665;28;20036;-80
2022/01/29 07:59:03;;;;;;;38.05;18.40;;;;;;;6.44;92.30;102385.47;5046191;28;20456;-80
2022/01/29 08:01:28;;;;;;;33.72;17.48;;;;;;;6.47;92.17;102380.34;5049834;28;20401;-80
2022/01/29 08:03:53;;;;;;;37.42;18.25;;;;;;;6.48;92.60;102379.50;5049965;28;20044;-80
2022/01/29 08:06:22;;;;;;;32.85;17.63;;;;;;;6.51;92.59;102381.25;5048515;28;20564;-80
2022/01/29 08:08:48;;;;;;;36.78;17.73;;;;;;;6.55;92.47;102361.47;5048082;28;20040;-80
2022/01/29 08:11:13;;;;;;;36.33;17.75;;;;;;;6.57;92.22;102364.97;5050456;28;20401;-80
2022/01/29 08:13:39;;;;;;;35.85;18.60;;;;;;;6.60;92.71;102354.66;5046659;28;20027;-80
2022/01/29 08:16:05;;;;;;;38.88;18.83;;;;;;;6.61;92.64;102364.16;5054759;28;20037;-80
2022/01/29 08:18:30;;;;;;;36.67;17.95;;;;;;;6.65;92.33;102358.22;5049481;28;20032;-80
2022/01/29 08:20:56;;;;;;;33.40;18.13;;;;;;;6.68;92.47;102360.81;5049610;28;20056;-80
2022/01/29 08:23:21;;;;;;;33.00;18.23;;;;;;;6.72;92.36;102351.41;5049652;28;20482;-80
2022/01/29 08:25:47;;;;;;;35.17;17.42;;;;;;;6.73;92.62;102345.38;5049459;28;20032;-80
2022/01/29 08:28:12;;;;;;;36.10;17.92;;;;;;;6.75;92.60;102349.72;5048891;28;20028;-80
2022/01/29 08:30:38;;;;;;;41.83;17.67;;;;;;;6.77;92.76;102353.22;5047425;28;20040;-80
2022/01/29 08:33:06;;;;;;;32.92;18.27;;;;;;;6.79;92.52;102341.16;5047834;28;20048;-81
2022/01/29 08:35:32;;;;;;;43.53;19.45;;;;;;;6.82;92.65;102341.22;5049345;28;20028;-80
2022/01/29 08:37:57;;;;;;;39.03;18.42;;;;;;;6.84;92.55;102349.84;5049062;28;20032;-80
2022/01/29 08:40:23;;;;;;;36.03;18.42;;;;;;;6.87;92.60;102343.88;5048729;28;20029;-80
2022/01/29 08:42:49;;;;;;;38.10;18.88;;;;;;;6.93;93.00;102337.91;5050334;28;20039;-80
2022/01/29 08:45:14;;;;;;;38.33;18.60;;;;;;;6.96;92.46;102337.94;5049854;28;20052;-80
2022/01/29 08:47:41;;;;;;;35.65;17.65;;;;;;;6.95;92.61;102331.88;5047913;28;20025;-80
2022/01/29 08:50:09;;;;;;;41.95;18.00;;;;;;;6.99;92.38;102332.81;5046411;28;20395;-81
2022/01/29 08:52:35;;;;;;;36.20;18.27;;;;;;;7.02;92.49;102338.00;5050668;28;20059;-80
2022/01/29 08:55:01;;;;;;;38.95;17.98;;;;;;;7.05;92.26;102332.03;5046486;28;20021;-80
2022/01/29 08:57:26;;;;;;;39.15;18.67;;;;;;;7.08;92.39;102322.56;5050008;28;20032;-80
2022/01/29 08:59:51;;;;;;;35.72;17.55;;;;;;;7.13;92.09;102314.84;5049005;28;20037;-80
2022/01/29 09:02:17;;;;;;;36.33;18.73;;;;;;;7.13;92.34;102313.16;5048696;28;20037;-80
2022/01/29 09:04:42;;;;;;;34.20;18.88;;;;;;;7.16;92.04;102320.06;5049238;28;20065;-80
2022/01/29 09:07:09;;;;;;;35.65;17.88;;;;;;;7.21;91.98;102312.34;5049424;28;20032;-81
2022/01/29 09:09:35;;;;;;;38.60;18.70;;;;;;;7.19;92.14;102304.59;5050000;28;20032;-80
2022/01/29 09:12:01;;;;;;;32.55;17.25;;;;;;;7.20;91.82;102308.91;5062009;28;20035;-80
2022/01/29 09:14:27;;;;;;;30.17;16.98;;;;;;;7.26;91.81;102310.72;5053029;28;20427;-81
2022/01/29 09:16:52;;;;;;;34.42;17.92;;;;;;;7.27;91.91;102307.28;5050573;28;20029;-80
2022/01/29 09:19:17;;;;;;;34.08;17.55;;;;;;;7.27;92.18;102307.28;5048864;28;20028;-80
2022/01/29 09:21:42;;;;;;;35.22;17.38;;;;;;;7.31;92.08;102297.81;5048130;28;20514;-80
2022/01/29 09:24:08;;;;;;;35.03;17.95;;;;;;;7.31;92.14;102298.69;5049422;28;20025;-80
2022/01/29 09:26:33;;;;;;;37.88;18.55;;;;;;;7.36;91.97;102296.16;5048659;28;20029;-80
2022/01/29 09:28:58;;;;;;;35.15;17.83;;;;;;;7.36;92.00;102302.19;5048488;28;20044;-80
2022/01/29 09:31:24;;;;;;;34.53;17.90;;;;;;;7.41;91.81;102297.09;5049534;28;20028;-80
2022/01/29 09:33:49;;;;;;;31.35;18.88;;;;;;;7.42;91.98;102298.81;5046882;28;20516;-80
2022/01/29 09:36:14;;;;;;;31.63;18.13;;;;;;;7.44;91.91;102310.03;5052801;28;20021;-80
2022/01/29 09:38:40;;;;;;;29.20;17.42;;;;;;;7.47;91.52;102304.03;5053896;28;20048;-80
2022/01/29 09:41:07;;;;;;;30.63;16.48;;;;;;;7.49;91.74;102312.69;5052537;28;20127;-80
2022/01/29 09:43:33;;;;;;;31.77;17.33;;;;;;;7.55;91.30;102317.91;5049217;28;20025;-80
2022/01/29 09:45:59;;;;;;;27.80;16.42;;;;;;;7.56;91.49;102306.72;5050869;28;20059;-80
2022/01/29 09:48:28;;;;;;;27.08;16.23;;;;;;;7.58;91.52;102308.50;5049861;28;20029;-81
2022/01/29 09:50:56;;;;;;;30.10;16.02;;;;;;;7.64;91.20;102305.09;5050055;28;20033;-80
2022/01/29 09:53:21;;;;;;;32.70;16.73;;;;;;;7.66;91.05;102308.56;5047916;28;20464;-81
2022/01/29 09:55:47;;;;;;;28.48;15.43;;;;;;;7.70;90.88;102301.69;5047864;28;20032;-81
2022/01/29 09:58:13;;;;;;;25.48;14.13;;;;;;;7.72;90.78;102315.53;5050928;28;20025;-81
2022/01/29 10:00:39;;;;;;;34.35;16.83;;;;;;;7.73;90.84;102312.09;5053158;28;20499;-81
2022/01/29 10:03:10;;;;;;;26.95;14.73;;;;;;;7.75;90.71;102319.00;5051702;28;20025;-80
2022/01/29 10:05:36;;;;;;;28.33;16.05;;;;;;;7.75;90.83;102315.56;5052417;28;20111;-81
2022/01/29 10:08:02;;;;;;;31.17;16.15;;;;;;;7.77;90.30;102313.81;5050799;28;20028;-79
2022/01/29 10:10:27;;;;;;;27.38;15.30;;;;;;;7.81;90.45;102306.97;5056891;28;20028;-80
2022/01/29 10:12:53;;;;;;;27.80;15.38;;;;;;;7.84;90.40;102315.63;5055794;28;20403;-80
2022/01/29 10:15:21;;;;;;;34.58;15.18;;;;;;;7.86;90.52;102310.44;5054352;28;20027;-80
2022/01/29 10:17:53;;;;;;;26.67;14.57;;;;;;;7.93;90.09;102296.72;5059147;28;20039;-80
2022/01/29 10:20:26;;;;;;;25.67;14.63;;;;;;;7.97;89.84;102297.59;5064899;28;20028;-81
2022/01/29 10:22:54;;;;;;;28.20;15.32;;;;;;;7.97;89.78;102285.53;5059582;28;20051;-80
2022/01/29 10:25:23;;;;;;;26.67;15.15;;;;;;;7.99;89.69;102289.00;5060118;28;20059;-80
2022/01/29 10:28:09;;;;;;;26.60;15.40;;;;;;;8.04;89.78;102292.47;5058674;28;20200;-81
2022/01/29 10:30:37;;;;;;;31.40;14.80;;;;;;;8.05;89.33;102283.84;5052646;28;20119;-79
2022/01/29 10:33:20;;;;;;;36.47;15.13;;;;;;;8.10;89.37;102272.66;5057580;28;20075;-80
2022/01/29 10:35:52;;;;;;;23.88;14.02;;;;;;;8.11;89.36;102259.72;5058639;28;20037;-80
2022/01/29 10:38:23;;;;;;;21.70;13.80;;;;;;;8.14;89.16;102251.09;5057385;28;20036;-80
2022/01/29 10:41:23;;;;;;;23.65;14.10;;;;;;;8.22;88.64;102251.16;5059014;28;20035;-80
2022/01/29 10:44:16;;;;;;;19.13;12.75;;;;;;;8.26;88.34;102258.94;5058636;28;20495;-80
2022/01/29 10:46:50;;;;;;;23.23;13.93;;;;;;;8.28;88.33;102249.47;5055311;28;20033;-80
2022/01/29 10:49:29;;;;;;;22.88;14.40;;;;;;;8.33;88.41;102252.06;5059479;28;20107;-80
2022/01/29 10:52:05;;;;;;;25.63;12.88;;;;;;;8.35;87.87;102251.25;5060911;28;20028;-80
2022/01/29 10:54:38;;;;;;;20.80;14.13;;;;;;;8.43;87.85;102242.63;5060323;28;20032;-79
2022/01/29 10:57:07;;;;;;;22.23;13.50;;;;;;;8.43;87.64;102240.03;5060351;28;20032;-80
2022/01/29 10:59:38;;;;;;;21.20;14.13;;;;;;;8.47;87.37;102234.88;5060202;28;20048;-80
2022/01/29 11:02:09;;;;;;;26.23;13.52;;;;;;;8.51;87.16;102230.63;5059646;28;20243;-79
2022/01/29 11:04:36;;;;;;;17.85;11.82;;;;;;;8.57;86.89;102247.94;5060689;28;20387;-80
2022/01/29 11:07:06;;;;;;;21.25;12.05;;;;;;;8.55;86.69;102237.53;5059603;28;20468;-80
2022/01/29 11:09:32;;;;;;;16.55;10.95;;;;;;;8.59;86.43;102231.50;5059999;28;20086;-80
2022/01/29 11:12:01;;;;;;;18.63;11.50;;;;;;;8.62;86.16;102226.34;5057651;28;20495;-80
2022/01/29 11:14:28;;;;;;;18.58;11.38;;;;;;;8.61;86.11;102222.00;5061443;28;20032;-80
2022/01/29 11:16:53;;;;;;;18.50;11.27;;;;;;;8.65;86.21;102223.78;5060108;28;20527;-80
2022/01/29 11:19:19;;;;;;;15.77;10.55;;;;;;;8.69;85.73;102213.41;5061406;28;20021;-80
2022/01/29 11:21:50;;;;;;;19.08;9.88;;;;;;;8.73;85.26;102215.13;5060397;28;20139;-79
2022/01/29 11:24:21;;;;;;;14.50;9.68;;;;;;;8.72;85.31;102208.22;5057913;28;20269;-79
2022/01/29 11:26:47;;;;;;;14.63;9.38;;;;;;;8.72;85.28;102203.91;5059923;28;20040;-80
2022/01/29 11:29:37;;;;;;;14.07;8.85;;;;;;;8.79;85.35;102202.19;5057344;28;20383;-79
2022/01/29 11:32:21;;;;;;;14.80;8.88;;;;;;;8.81;85.29;102187.50;5057985;28;20035;-79